VIGR

Gwalior Airport

Airport
ICAO code
VIGR
Summary
ICAO Region
APAC
ICAO Territory
Location

Gwalior, Madhya Pradesh,

Coordinates
26° 17' 52" N , 78° 13' 36" E
KCC
Airport BS
Bird Strike
Airport LOS
Parallel Runway Operation
Airport WX
Cumulonimbus
Metar
Observation
VIGR 070300Z 05003KT 4000 BR SCT008 BKN010 FEW025TCU OVC090 24/24 Q1010 TEMPO 2000 RA
Station
Gwalior
Date/Time
2022-10-07 03:00:00
Wind direction
50°
Wind speed
03 kts
Lowest cloud amount
scattered clouds
Temperature
24°C
Dew point
24°C
Humidity
100%
QNH
1010 hPa
Weather condition
n/a

Description

Gwalior Airport is a civil enclave airport at the Maharajpur Air Force Station located 10 km north-east of Gwalior, a city in the state of Madhya Pradesh, India.

Climatology

Humid “subtropical” climate (Köppen climate classification Cwa) - characterized by hot, humid summers and cool winters. Almost all of the annual precipitation falls during monsoon season between June and October.

Airport map

Aerial View

SKYbrary Partners:

Safety knowledge contributed by: